sensor_id;sensor_type;location;lat;lon;timestamp;pressure;altitude;pressure_sealevel;temperature;humidity
56420;BME280;42323;52.170;7.538;2023-08-21T00:00:27;101869.56;;;18.32;80.94
56420;BME280;42323;52.170;7.538;2023-08-21T00:02:54;101876.06;;;18.29;81.36
56420;BME280;42323;52.170;7.538;2023-08-21T00:05:20;101871.16;;;18.26;82.11
56420;BME280;42323;52.170;7.538;2023-08-21T00:07:47;101871.16;;;18.26;82.35
56420;BME280;42323;52.170;7.538;2023-08-21T00:10:17;101870.97;;;18.27;82.58
56420;BME280;42323;52.170;7.538;2023-08-21T00:12:43;101867.50;;;18.27;82.75
56420;BME280;42323;52.170;7.538;2023-08-21T00:15:10;101865.66;;;18.27;82.83
56420;BME280;42323;52.170;7.538;2023-08-21T00:17:36;101881.97;;;18.24;82.88
56420;BME280;42323;52.170;7.538;2023-08-21T00:20:03;101878.88;;;18.21;83.40
56420;BME280;42323;52.170;7.538;2023-08-21T00:22:29;101874.81;;;18.25;83.50
56420;BME280;42323;52.170;7.538;2023-08-21T00:24:55;101872.00;;;18.26;83.24
56420;BME280;42323;52.170;7.538;2023-08-21T00:27:22;101866.88;;;18.25;83.29
56420;BME280;42323;52.170;7.538;2023-08-21T00:29:48;101865.44;;;18.22;83.78
56420;BME280;42323;52.170;7.538;2023-08-21T00:32:15;101877.03;;;18.21;83.78
56420;BME280;42323;52.170;7.538;2023-08-21T00:34:42;101874.97;;;18.17;84.04
56420;BME280;42323;52.170;7.538;2023-08-21T00:37:08;101864.78;;;18.14;84.43
56420;BME280;42323;52.170;7.538;2023-08-21T00:39:35;101872.25;;;18.03;84.92
56420;BME280;42323;52.170;7.538;2023-08-21T00:42:01;101867.09;;;17.95;85.42
56420;BME280;42323;52.170;7.538;2023-08-21T00:44:27;101866.09;;;17.96;85.64
56420;BME280;42323;52.170;7.538;2023-08-21T00:46:54;101870.00;;;18.00;85.57
56420;BME280;42323;52.170;7.538;2023-08-21T00:49:20;101867.75;;;18.04;85.38
56420;BME280;42323;52.170;7.538;2023-08-21T00:51:48;101871.50;;;18.10;85.49
56420;BME280;42323;52.170;7.538;2023-08-21T00:54:14;101868.03;;;18.09;85.42
56420;BME280;42323;52.170;7.538;2023-08-21T00:56:41;101864.28;;;18.03;85.39
56420;BME280;42323;52.170;7.538;2023-08-21T00:59:08;101869.00;;;18.01;85.86
56420;BME280;42323;52.170;7.538;2023-08-21T01:06:28;101869.88;;;18.15;nan
56420;BME280;42323;52.170;7.538;2023-08-21T01:11:22;101870.09;;;18.14;nan
56420;BME280;42323;52.170;7.538;2023-08-21T01:13:55;101873.94;;;18.11;nan
56420;BME280;42323;52.170;7.538;2023-08-21T01:16:24;101869.81;;;18.09;nan
56420;BME280;42323;52.170;7.538;2023-08-21T01:18:50;101876.75;;;18.03;nan
56420;BME280;42323;52.170;7.538;2023-08-21T01:21:18;101870.75;;;17.94;nan
56420;BME280;42323;52.170;7.538;2023-08-21T01:23:44;101872.97;;;17.91;nan
56420;BME280;42323;52.170;7.538;2023-08-21T01:26:11;101879.50;;;17.88;nan
56420;BME280;42323;52.170;7.538;2023-08-21T01:28:37;101876.56;;;17.76;nan
56420;BME280;42323;52.170;7.538;2023-08-21T01:33:35;101880.69;;;17.58;nan
56420;BME280;42323;52.170;7.538;2023-08-21T01:36:03;101867.03;;;17.61;nan
56420;BME280;42323;52.170;7.538;2023-08-21T01:38:33;101871.00;;;17.71;nan
56420;BME280;42323;52.170;7.538;2023-08-21T01:41:01;101872.88;;;17.77;nan
56420;BME280;42323;52.170;7.538;2023-08-21T01:43:28;101872.72;;;17.79;nan
56420;BME280;42323;52.170;7.538;2023-08-21T01:45:55;101868.63;;;17.83;nan
56420;BME280;42323;52.170;7.538;2023-08-21T01:48:23;101879.50;;;17.88;nan
56420;BME280;42323;52.170;7.538;2023-08-21T01:50:49;101870.75;;;17.94;nan
56420;BME280;42323;52.170;7.538;2023-08-21T01:53:16;101874.69;;;17.98;nan
56420;BME280;42323;52.170;7.538;2023-08-21T01:55:42;101871.22;;;17.98;nan
56420;BME280;42323;52.170;7.538;2023-08-21T01:58:09;101869.16;;;18.00;nan
56420;BME280;42323;52.170;7.538;2023-08-21T02:00:35;101859.81;;;18.04;nan
56420;BME280;42323;52.170;7.538;2023-08-21T02:03:02;101858.16;;;18.03;nan
56420;BME280;42323;52.170;7.538;2023-08-21T02:05:28;101853.66;;;17.97;nan
56420;BME280;42323;52.170;7.538;2023-08-21T02:07:55;101843.78;;;17.84;nan
56420;BME280;42323;52.170;7.538;2023-08-21T02:10:21;101850.06;;;17.76;nan
56420;BME280;42323;52.170;7.538;2023-08-21T02:12:48;101853.25;;;17.72;nan
56420;BME280;42323;52.170;7.538;2023-08-21T02:15:15;101864.81;;;17.64;nan
56420;BME280;42323;52.170;7.538;2023-08-21T02:17:41;101865.75;;;17.56;nan
56420;BME280;42323;52.170;7.538;2023-08-21T02:20:09;101862.25;;;17.49;nan
56420;BME280;42323;52.170;7.538;2023-08-21T02:22:36;101869.19;;;17.50;nan
56420;BME280;42323;52.170;7.538;2023-08-21T02:25:03;101869.19;;;17.50;nan
56420;BME280;42323;52.170;7.538;2023-08-21T02:27:29;101871.16;;;17.42;nan
56420;BME280;42323;52.170;7.538;2023-08-21T02:29:56;101871.16;;;17.42;nan
56420;BME280;42323;52.170;7.538;2023-08-21T02:32:22;101871.16;;;17.42;nan
56420;BME280;42323;52.170;7.538;2023-08-21T02:34:48;101875.63;;;17.20;nan
56420;BME280;42323;52.170;7.538;2023-08-21T02:37:15;101881.38;;;17.23;nan
56420;BME280;42323;52.170;7.538;2023-08-21T02:39:41;101879.16;;;17.27;nan
56420;BME280;42323;52.170;7.538;2023-08-21T02:42:08;101878.78;;;17.30;nan
56420;BME280;42323;52.170;7.538;2023-08-21T02:44:34;101874.94;;;17.33;nan
56420;BME280;42323;52.170;7.538;2023-08-21T02:47:01;101871.91;;;17.36;nan
56420;BME280;42323;52.170;7.538;2023-08-21T02:49:28;101875.19;;;17.38;nan
56420;BME280;42323;52.170;7.538;2023-08-21T02:51:55;101863.56;;;17.39;nan
56420;BME280;42323;52.170;7.538;2023-08-21T02:54:21;101868.50;;;17.42;nan
56420;BME280;42323;52.170;7.538;2023-08-21T02:56:48;101871.16;;;17.42;nan
56420;BME280;42323;52.170;7.538;2023-08-21T02:59:14;101866.66;;;17.42;nan
56420;BME280;42323;52.170;7.538;2023-08-21T03:01:40;101862.56;;;17.40;nan
56420;BME280;42323;52.170;7.538;2023-08-21T03:04:07;101864.78;;;17.36;nan
56420;BME280;42323;52.170;7.538;2023-08-21T03:06:33;101863.78;;;17.37;nan
56420;BME280;42323;52.170;7.538;2023-08-21T03:09:00;101871.34;;;17.40;nan
56420;BME280;42323;52.170;7.538;2023-08-21T03:11:26;101868.69;;;17.40;nan
56420;BME280;42323;52.170;7.538;2023-08-21T03:13:53;101868.31;;;17.43;nan
56420;BME280;42323;52.170;7.538;2023-08-21T03:16:20;101865.06;;;17.48;nan
56420;BME280;42323;52.170;7.538;2023-08-21T03:18:56;101865.16;;;17.54;nan
56420;BME280;42323;52.170;7.538;2023-08-21T03:21:23;101867.44;;;17.58;nan
56420;BME280;42323;52.170;7.538;2023-08-21T03:23:50;101866.56;;;17.57;nan
56420;BME280;42323;52.170;7.538;2023-08-21T03:26:17;101863.94;;;17.57;nan
56420;BME280;42323;52.170;7.538;2023-08-21T03:28:43;101866.19;;;17.60;nan
56420;BME280;42323;52.170;7.538;2023-08-21T03:31:10;101863.13;;;17.56;nan
56420;BME280;42323;52.170;7.538;2023-08-21T03:33:36;101867.16;;;17.52;nan
56420;BME280;42323;52.170;7.538;2023-08-21T03:36:03;101876.13;;;17.51;nan
56420;BME280;42323;52.170;7.538;2023-08-21T03:38:29;101869.81;;;17.52;nan
56420;BME280;42323;52.170;7.538;2023-08-21T03:40:56;101866.78;;;17.55;nan
56420;BME280;42323;52.170;7.538;2023-08-21T03:43:22;101869.66;;;17.61;nan
56420;BME280;42323;52.170;7.538;2023-08-21T03:45:49;101869.72;;;17.67;nan
56420;BME280;42323;52.170;7.538;2023-08-21T03:48:15;101877.94;;;17.72;nan
56420;BME280;42323;52.170;7.538;2023-08-21T03:50:42;101873.81;;;17.70;nan
56420;BME280;42323;52.170;7.538;2023-08-21T03:53:08;101879.13;;;17.70;nan
56420;BME280;42323;52.170;7.538;2023-08-21T03:55:35;101871.81;;;17.72;nan
56420;BME280;42323;52.170;7.538;2023-08-21T03:58:01;101869.97;;;17.72;nan
56420;BME280;42323;52.170;7.538;2023-08-21T04:00:27;101869.81;;;17.74;nan
56420;BME280;42323;52.170;7.538;2023-08-21T04:02:54;101869.16;;;17.72;nan
56420;BME280;42323;52.170;7.538;2023-08-21T04:05:20;101866.06;;;17.68;nan
56420;BME280;42323;52.170;7.538;2023-08-21T04:07:47;101870.47;;;17.61;nan
56420;BME280;42323;52.170;7.538;2023-08-21T04:10:14;101865.97;;;17.55;nan
56420;BME280;42323;52.170;7.538;2023-08-21T04:12:40;101867.34;;;17.51;nan
56420;BME280;42323;52.170;7.538;2023-08-21T04:15:07;101865.72;;;17.50;nan
56420;BME280;42323;52.170;7.538;2023-08-21T04:17:34;101874.63;;;17.42;nan
56420;BME280;42323;52.170;7.538;2023-08-21T04:20:01;101869.06;;;17.37;nan
56420;BME280;42323;52.170;7.538;2023-08-21T04:22:28;101876.38;;;17.35;nan
56420;BME280;42323;52.170;7.538;2023-08-21T04:24:54;101873.13;;;17.33;nan
56420;BME280;42323;52.170;7.538;2023-08-21T04:27:20;101877.41;;;17.34;nan
56420;BME280;42323;52.170;7.538;2023-08-21T04:29:47;101879.22;;;17.34;nan
56420;BME280;42323;52.170;7.538;2023-08-21T04:32:13;101872.91;;;17.35;nan
56420;BME280;42323;52.170;7.538;2023-08-21T04:34:40;101875.19;;;17.38;nan
56420;BME280;42323;52.170;7.538;2023-08-21T04:37:06;101870.91;;;17.37;nan
56420;BME280;42323;52.170;7.538;2023-08-21T04:39:33;101874.13;;;17.32;nan
56420;BME280;42323;52.170;7.538;2023-08-21T04:41:59;101871.19;;;17.27;nan
56420;BME280;42323;52.170;7.538;2023-08-21T04:44:26;101870.59;;;17.25;nan
56420;BME280;42323;52.170;7.538;2023-08-21T04:46:52;101866.69;;;17.21;nan
56420;BME280;42323;52.170;7.538;2023-08-21T04:49:19;101869.88;;;17.16;nan
56420;BME280;42323;52.170;7.538;2023-08-21T04:51:46;101865.97;;;17.12;nan
56420;BME280;42323;52.170;7.538;2023-08-21T04:54:12;101871.22;;;17.05;nan
56420;BME280;42323;52.170;7.538;2023-08-21T04:56:38;101874.25;;;17.02;nan
56420;BME280;42323;52.170;7.538;2023-08-21T04:59:05;101873.22;;;17.03;nan
56420;BME280;42323;52.170;7.538;2023-08-21T05:01:32;101879.59;;;17.09;nan
56420;BME280;42323;52.170;7.538;2023-08-21T05:03:58;101881.09;;;17.18;nan
56420;BME280;42323;52.170;7.538;2023-08-21T05:06:25;101885.09;;;17.29;nan
56420;BME280;42323;52.170;7.538;2023-08-21T05:08:51;101887.25;;;17.40;nan
56420;BME280;42323;52.170;7.538;2023-08-21T05:11:18;101886.47;;;17.46;nan
56420;BME280;42323;52.170;7.538;2023-08-21T05:13:44;101886.16;;;17.56;nan
56420;BME280;42323;52.170;7.538;2023-08-21T05:16:10;101889.47;;;17.65;nan
56420;BME280;42323;52.170;7.538;2023-08-21T05:18:37;101889.47;;;17.65;nan
56420;BME280;42323;52.170;7.538;2023-08-21T05:21:04;101890.25;;;17.80;nan
56420;BME280;42323;52.170;7.538;2023-08-21T05:23:30;101896.84;;;17.91;nan
56420;BME280;42323;52.170;7.538;2023-08-21T05:25:56;101899.56;;;17.97;nan
56420;BME280;42323;52.170;7.538;2023-08-21T05:28:23;101900.19;;;17.99;nan
56420;BME280;42323;52.170;7.538;2023-08-21T05:30:49;101904.66;;;17.99;nan
56420;BME280;42323;52.170;7.538;2023-08-21T05:33:16;101905.47;;;17.99;nan
56420;BME280;42323;52.170;7.538;2023-08-21T05:35:45;101912.81;;;17.97;nan
56420;BME280;42323;52.170;7.538;2023-08-21T05:38:12;101904.88;;;17.97;nan
56420;BME280;42323;52.170;7.538;2023-08-21T05:40:40;101917.75;;;18.00;nan
56420;BME280;42323;52.170;7.538;2023-08-21T05:43:06;101918.97;;;18.04;nan
56420;BME280;42323;52.170;7.538;2023-08-21T05:45:32;101923.09;;;18.07;nan
56420;BME280;42323;52.170;7.538;2023-08-21T05:47:59;101923.09;;;18.07;nan
56420;BME280;42323;52.170;7.538;2023-08-21T05:50:25;101922.94;;;18.15;nan
56420;BME280;42323;52.170;7.538;2023-08-21T05:52:52;101922.16;;;18.21;nan
56420;BME280;42323;52.170;7.538;2023-08-21T05:55:20;101925.25;;;18.25;nan
56420;BME280;42323;52.170;7.538;2023-08-21T05:57:47;101930.38;;;18.26;nan
56420;BME280;42323;52.170;7.538;2023-08-21T06:00:14;101929.72;;;18.24;nan
56420;BME280;42323;52.170;7.538;2023-08-21T06:02:40;101921.38;;;18.27;nan
56420;BME280;42323;52.170;7.538;2023-08-21T06:05:09;101932.63;;;18.29;nan
56420;BME280;42323;52.170;7.538;2023-08-21T06:07:35;101925.72;;;18.35;nan
56420;BME280;42323;52.170;7.538;2023-08-21T06:10:02;101935.16;;;18.44;nan
56420;BME280;42323;52.170;7.538;2023-08-21T06:12:29;101942.97;;;18.52;nan
56420;BME280;42323;52.170;7.538;2023-08-21T06:14:55;101942.38;;;18.57;nan
56420;BME280;42323;52.170;7.538;2023-08-21T06:17:22;101938.72;;;18.58;nan
56420;BME280;42323;52.170;7.538;2023-08-21T06:19:48;101932.38;;;18.59;nan
56420;BME280;42323;52.170;7.538;2023-08-21T06:22:15;101930.16;;;18.63;nan
56420;BME280;42323;52.170;7.538;2023-08-21T06:24:41;101929.13;;;18.64;nan
56420;BME280;42323;52.170;7.538;2023-08-21T06:27:08;101936.50;;;18.68;nan
56420;BME280;42323;52.170;7.538;2023-08-21T06:29:35;101927.38;;;18.77;nan
56420;BME280;42323;52.170;7.538;2023-08-21T06:32:01;101924.16;;;18.95;nan
56420;BME280;42323;52.170;7.538;2023-08-21T06:34:28;101924.63;;;19.12;nan
56420;BME280;42323;52.170;7.538;2023-08-21T06:36:54;101922.03;;;19.32;nan
56420;BME280;42323;52.170;7.538;2023-08-21T06:39:21;101927.56;;;19.50;nan
56420;BME280;42323;52.170;7.538;2023-08-21T06:41:47;101932.69;;;19.59;nan
56420;BME280;42323;52.170;7.538;2023-08-21T06:44:14;101928.84;;;19.68;nan
56420;BME280;42323;52.170;7.538;2023-08-21T06:46:40;101930.25;;;19.77;nan
56420;BME280;42323;52.170;7.538;2023-08-21T06:49:07;101937.63;;;19.88;nan
56420;BME280;42323;52.170;7.538;2023-08-21T06:51:33;101929.44;;;19.96;nan
56420;BME280;42323;52.170;7.538;2023-08-21T06:54:00;101932.72;;;20.05;nan
56420;BME280;42323;52.170;7.538;2023-08-21T06:56:27;101935.34;;;20.12;nan
56420;BME280;42323;52.170;7.538;2023-08-21T06:58:53;101939.66;;;20.13;nan
56420;BME280;42323;52.170;7.538;2023-08-21T07:01:21;101938.00;;;20.12;nan
56420;BME280;42323;52.170;7.538;2023-08-21T07:03:48;101938.41;;;20.15;nan
56420;BME280;42323;52.170;7.538;2023-08-21T07:06:14;101939.66;;;20.13;nan
56420;BME280;42323;52.170;7.538;2023-08-21T07:08:40;101931.25;;;20.16;nan
56420;BME280;42323;52.170;7.538;2023-08-21T07:11:07;101940.66;;;20.25;nan
56420;BME280;42323;52.170;7.538;2023-08-21T07:13:40;101934.47;;;20.38;nan
56420;BME280;42323;52.170;7.538;2023-08-21T07:16:06;101932.03;;;20.49;nan
56420;BME280;42323;52.170;7.538;2023-08-21T07:18:35;101934.44;;;20.64;nan
56420;BME280;42323;52.170;7.538;2023-08-21T07:21:01;101932.78;;;20.70;nan
56420;BME280;42323;52.170;7.538;2023-08-21T07:23:37;101937.69;;;20.73;nan
56420;BME280;42323;52.170;7.538;2023-08-21T07:26:04;101939.16;;;20.69;nan
56420;BME280;42323;52.170;7.538;2023-08-21T07:28:33;101937.94;;;20.65;nan
56420;BME280;42323;52.170;7.538;2023-08-21T07:30:59;101931.78;;;20.64;nan
56420;BME280;42323;52.170;7.538;2023-08-21T07:33:26;101923.41;;;20.61;nan
56420;BME280;42323;52.170;7.538;2023-08-21T07:35:57;101929.75;;;20.60;nan
56420;BME280;42323;52.170;7.538;2023-08-21T07:38:23;101937.13;;;20.64;nan
56420;BME280;42323;52.170;7.538;2023-08-21T07:40:50;101931.75;;;20.71;nan
56420;BME280;42323;52.170;7.538;2023-08-21T07:43:16;101929.06;;;20.77;nan
56420;BME280;42323;52.170;7.538;2023-08-21T07:45:42;101937.00;;;20.91;nan
56420;BME280;42323;52.170;7.538;2023-08-21T07:48:09;101936.72;;;21.05;nan
56420;BME280;42323;52.170;7.538;2023-08-21T07:50:40;101942.97;;;21.24;nan
56420;BME280;42323;52.170;7.538;2023-08-21T07:53:06;101951.53;;;21.65;nan
56420;BME280;42323;52.170;7.538;2023-08-21T07:55:33;101945.44;;;22.08;nan
56420;BME280;42323;52.170;7.538;2023-08-21T07:57:59;101950.38;;;22.29;nan
56420;BME280;42323;52.170;7.538;2023-08-21T08:00:26;101952.69;;;22.44;nan
56420;BME280;42323;52.170;7.538;2023-08-21T08:02:53;101942.06;;;22.56;nan
56420;BME280;42323;52.170;7.538;2023-08-21T08:05:20;101936.94;;;22.72;nan
56420;BME280;42323;52.170;7.538;2023-08-21T08:07:46;101933.34;;;22.78;nan
56420;BME280;42323;52.170;7.538;2023-08-21T08:10:13;101934.97;;;22.79;nan
56420;BME280;42323;52.170;7.538;2023-08-21T08:12:41;101941.69;;;22.89;nan
56420;BME280;42323;52.170;7.538;2023-08-21T08:15:07;101930.66;;;22.97;nan
56420;BME280;42323;52.170;7.538;2023-08-21T08:17:34;101928.22;;;22.95;nan
56420;BME280;42323;52.170;7.538;2023-08-21T08:20:01;101932.09;;;22.81;nan
56420;BME280;42323;52.170;7.538;2023-08-21T08:22:27;101925.88;;;22.69;nan
56420;BME280;42323;52.170;7.538;2023-08-21T08:24:54;101925.06;;;22.68;nan
56420;BME280;42323;52.170;7.538;2023-08-21T08:27:20;101931.28;;;22.81;nan
56420;BME280;42323;52.170;7.538;2023-08-21T08:29:47;101928.00;;;22.97;nan
56420;BME280;42323;52.170;7.538;2023-08-21T08:32:13;101924.00;;;23.18;nan
56420;BME280;42323;52.170;7.538;2023-08-21T08:34:40;101928.13;;;23.32;nan
56420;BME280;42323;52.170;7.538;2023-08-21T08:37:06;101928.16;;;23.56;nan
56420;BME280;42323;52.170;7.538;2023-08-21T08:39:33;101931.38;;;23.76;nan
56420;BME280;42323;52.170;7.538;2023-08-21T08:42:03;101922.41;;;23.94;nan
56420;BME280;42323;52.170;7.538;2023-08-21T08:44:29;101929.97;;;24.09;nan
56420;BME280;42323;52.170;7.538;2023-08-21T08:46:56;101927.28;;;24.09;nan
56420;BME280;42323;52.170;7.538;2023-08-21T08:49:23;101927.03;;;24.22;nan
56420;BME280;42323;52.170;7.538;2023-08-21T08:51:50;101935.06;;;24.34;nan
56420;BME280;42323;52.170;7.538;2023-08-21T08:54:17;101926.56;;;24.48;nan
56420;BME280;42323;52.170;7.538;2023-08-21T08:56:44;101926.56;;;24.48;nan
56420;BME280;42323;52.170;7.538;2023-08-21T08:59:14;101912.00;;;24.44;nan
56420;BME280;42323;52.170;7.538;2023-08-21T09:01:41;101929.34;;;24.53;nan
56420;BME280;42323;52.170;7.538;2023-08-21T09:04:08;101923.28;;;24.46;nan
56420;BME280;42323;52.170;7.538;2023-08-21T09:06:35;101932.84;;;24.42;nan
56420;BME280;42323;52.170;7.538;2023-08-21T09:09:01;101929.63;;;24.40;nan
56420;BME280;42323;52.170;7.538;2023-08-21T09:11:28;101927.75;;;24.41;nan
56420;BME280;42323;52.170;7.538;2023-08-21T09:13:54;101924.72;;;24.37;nan
56420;BME280;42323;52.170;7.538;2023-08-21T09:16:22;101924.91;;;24.47;nan
56420;BME280;42323;52.170;7.538;2023-08-21T09:18:50;101925.59;;;24.55;nan
56420;BME280;42323;52.170;7.538;2023-08-21T09:21:20;101933.28;;;24.63;nan
56420;BME280;42323;52.170;7.538;2023-08-21T09:23:48;101933.84;;;24.65;nan
56420;BME280;42323;52.170;7.538;2023-08-21T09:26:19;101932.66;;;24.72;nan
56420;BME280;42323;52.170;7.538;2023-08-21T09:28:48;101931.72;;;24.78;nan
56420;BME280;42323;52.170;7.538;2023-08-21T09:31:14;101939.19;;;24.76;nan
56420;BME280;42323;52.170;7.538;2023-08-21T09:33:41;101940.69;;;24.72;nan
56420;BME280;42323;52.170;7.538;2023-08-21T09:36:09;101941.41;;;24.68;nan
56420;BME280;42323;52.170;7.538;2023-08-21T09:38:38;101935.25;;;24.67;nan
56420;BME280;42323;52.170;7.538;2023-08-21T09:41:04;101921.13;;;24.72;nan
56420;BME280;42323;52.170;7.538;2023-08-21T09:43:31;101923.78;;;24.84;nan
56420;BME280;42323;52.170;7.538;2023-08-21T09:45:57;101918.13;;;24.97;nan
56420;BME280;42323;52.170;7.538;2023-08-21T09:48:24;101920.56;;;25.27;nan
56420;BME280;42323;52.170;7.538;2023-08-21T09:50:53;101923.88;;;25.51;nan
56420;BME280;42323;52.170;7.538;2023-08-21T09:53:20;101931.19;;;25.56;nan
56420;BME280;42323;52.170;7.538;2023-08-21T09:55:55;101935.63;;;25.62;nan
56420;BME280;42323;52.170;7.538;2023-08-21T09:58:21;101931.94;;;25.68;nan
56420;BME280;42323;52.170;7.538;2023-08-21T10:00:49;101942.25;;;26.10;nan
56420;BME280;42323;52.170;7.538;2023-08-21T10:03:18;101929.59;;;26.71;nan
56420;BME280;42323;52.170;7.538;2023-08-21T10:05:47;101918.22;;;26.42;nan
56420;BME280;42323;52.170;7.538;2023-08-21T10:08:15;101919.28;;;26.63;nan
56420;BME280;42323;52.170;7.538;2023-08-21T10:10:42;101908.91;;;27.63;nan
56420;BME280;42323;52.170;7.538;2023-08-21T10:13:09;101906.44;;;27.51;nan
56420;BME280;42323;52.170;7.538;2023-08-21T10:15:37;101916.78;;;28.07;nan
56420;BME280;42323;52.170;7.538;2023-08-21T10:18:23;101899.59;;;29.16;nan
56420;BME280;42323;52.170;7.538;2023-08-21T10:20:50;101899.72;;;30.07;nan
56420;BME280;42323;52.170;7.538;2023-08-21T10:23:24;101906.47;;;30.79;nan
56420;BME280;42323;52.170;7.538;2023-08-21T10:25:53;101908.66;;;30.67;nan
56420;BME280;42323;52.170;7.538;2023-08-21T10:28:25;101903.63;;;29.39;nan
56420;BME280;42323;52.170;7.538;2023-08-21T10:30:51;101896.63;;;29.59;nan
56420;BME280;42323;52.170;7.538;2023-08-21T10:33:18;101902.00;;;29.64;nan
56420;BME280;42323;52.170;7.538;2023-08-21T10:36:04;101900.94;;;29.09;nan
56420;BME280;42323;52.170;7.538;2023-08-21T10:38:30;101905.66;;;28.56;nan
56420;BME280;42323;52.170;7.538;2023-08-21T10:41:03;101906.63;;;28.29;nan
56420;BME280;42323;52.170;7.538;2023-08-21T10:43:36;101901.59;;;27.90;nan
56420;BME280;42323;52.170;7.538;2023-08-21T10:46:03;101900.53;;;27.96;nan
56420;BME280;42323;52.170;7.538;2023-08-21T10:48:33;101907.28;;;28.62;nan
56420;BME280;42323;52.170;7.538;2023-08-21T10:51:01;101896.34;;;28.21;nan
56420;BME280;42323;52.170;7.538;2023-08-21T10:53:27;101901.59;;;27.90;nan
56420;BME280;42323;52.170;7.538;2023-08-21T10:55:54;101903.53;;;28.05;nan
56420;BME280;42323;52.170;7.538;2023-08-21T10:58:21;101899.56;;;28.18;nan
56420;BME280;42323;52.170;7.538;2023-08-21T11:00:56;101898.97;;;28.11;nan
56420;BME280;42323;52.170;7.538;2023-08-21T11:03:22;101899.84;;;28.16;nan
56420;BME280;42323;52.170;7.538;2023-08-21T11:06:04;101898.75;;;29.06;nan
56420;BME280;42323;52.170;7.538;2023-08-21T11:08:32;101895.38;;;30.21;nan
56420;BME280;42323;52.170;7.538;2023-08-21T11:10:59;101886.41;;;30.26;nan
56420;BME280;42323;52.170;7.538;2023-08-21T11:13:26;101885.28;;;29.21;nan
56420;BME280;42323;52.170;7.538;2023-08-21T11:15:59;101891.16;;;28.72;nan
56420;BME280;42323;52.170;7.538;2023-08-21T11:18:35;101886.28;;;28.64;nan
56420;BME280;42323;52.170;7.538;2023-08-21T11:21:08;101896.06;;;29.16;nan
56420;BME280;42323;52.170;7.538;2023-08-21T11:23:36;101890.97;;;30.35;nan
56420;BME280;42323;52.170;7.538;2023-08-21T11:26:03;101880.16;;;31.19;nan
56420;BME280;42323;52.170;7.538;2023-08-21T11:28:45;101898.16;;;31.05;nan
56420;BME280;42323;52.170;7.538;2023-08-21T11:31:12;101898.75;;;30.91;nan
56420;BME280;42323;52.170;7.538;2023-08-21T11:33:38;101889.97;;;31.97;nan
56420;BME280;42323;52.170;7.538;2023-08-21T11:36:05;101888.09;;;32.16;nan
56420;BME280;42323;52.170;7.538;2023-08-21T11:38:32;101894.50;;;31.19;nan
56420;BME280;42323;52.170;7.538;2023-08-21T11:41:02;101898.88;;;30.76;nan
56420;BME280;42323;52.170;7.538;2023-08-21T11:43:35;101905.13;;;30.07;nan
56420;BME280;42323;52.170;7.538;2023-08-21T11:46:05;101897.13;;;29.61;nan
56420;BME280;42323;52.170;7.538;2023-08-21T11:48:36;101902.53;;;29.40;nan
56420;BME280;42323;52.170;7.538;2023-08-21T11:51:03;101905.25;;;29.35;nan
56420;BME280;42323;52.170;7.538;2023-08-21T11:53:39;101907.41;;;29.23;nan
56420;BME280;42323;52.170;7.538;2023-08-21T11:56:10;101898.25;;;29.19;nan
56420;BME280;42323;52.170;7.538;2023-08-21T11:58:40;101900.94;;;29.19;nan
56420;BME280;42323;52.170;7.538;2023-08-21T12:01:07;101913.34;;;29.30;nan
56420;BME280;42323;52.170;7.538;2023-08-21T12:03:37;101900.94;;;29.29;nan
56420;BME280;42323;52.170;7.538;2023-08-21T12:06:05;101896.88;;;29.27;nan
56420;BME280;42323;52.170;7.538;2023-08-21T12:08:32;101898.75;;;30.91;nan
56420;BME280;42323;52.170;7.538;2023-08-21T12:10:58;101881.19;;;33.18;nan
56420;BME280;42323;52.170;7.538;2023-08-21T12:13:25;101877.63;;;34.33;nan
56420;BME280;42323;52.170;7.538;2023-08-21T12:15:53;101874.63;;;33.80;nan
56420;BME280;42323;52.170;7.538;2023-08-21T12:18:19;101887.31;;;34.62;nan
56420;BME280;42323;52.170;7.538;2023-08-21T12:20:46;101878.81;;;34.77;nan
56420;BME280;42323;52.170;7.538;2023-08-21T12:23:12;101875.66;;;35.37;nan
56420;BME280;42323;52.170;7.538;2023-08-21T12:25:39;101863.28;;;35.62;nan
56420;BME280;42323;52.170;7.538;2023-08-21T12:28:06;101860.38;;;35.59;nan
56420;BME280;42323;52.170;7.538;2023-08-21T12:30:35;101857.31;;;36.43;nan
56420;BME280;42323;52.170;7.538;2023-08-21T12:33:01;101854.72;;;36.90;nan
56420;BME280;42323;52.170;7.538;2023-08-21T12:35:39;101853.78;;;36.17;nan
56420;BME280;42323;52.170;7.538;2023-08-21T12:38:10;101853.63;;;36.57;nan
56420;BME280;42323;52.170;7.538;2023-08-21T12:40:36;63019.00;;;-145.28;100.00
56420;BME280;42323;52.170;7.538;2023-08-21T12:43:03;63019.00;;;-145.28;100.00
56420;BME280;42323;52.170;7.538;2023-08-21T12:45:29;63019.00;;;-145.28;100.00
56420;BME280;42323;52.170;7.538;2023-08-21T12:47:56;63019.00;;;-145.28;100.00
56420;BME280;42323;52.170;7.538;2023-08-21T12:50:22;101857.78;;;39.00;nan
56420;BME280;42323;52.170;7.538;2023-08-21T12:52:49;101860.03;;;36.35;nan
56420;BME280;42323;52.170;7.538;2023-08-21T12:55:15;101863.06;;;34.74;nan
56420;BME280;42323;52.170;7.538;2023-08-21T12:57:42;101863.06;;;34.52;nan
56420;BME280;42323;52.170;7.538;2023-08-21T13:00:08;101860.84;;;33.49;nan
56420;BME280;42323;52.170;7.538;2023-08-21T13:02:37;101856.91;;;32.89;nan
56420;BME280;42323;52.170;7.538;2023-08-21T13:05:04;101862.84;;;32.40;nan
56420;BME280;42323;52.170;7.538;2023-08-21T13:07:32;101861.94;;;32.82;nan
56420;BME280;42323;52.170;7.538;2023-08-21T13:09:59;101857.66;;;34.38;nan
56420;BME280;42323;52.170;7.538;2023-08-21T13:12:25;101852.38;;;33.91;nan
56420;BME280;42323;52.170;7.538;2023-08-21T13:14:52;101851.25;;;33.79;nan
56420;BME280;42323;52.170;7.538;2023-08-21T13:17:18;101853.13;;;34.33;nan
56420;BME280;42323;52.170;7.538;2023-08-21T13:19:45;101849.00;;;33.26;nan